Time;durP1;ratioP1;P1;durP2;ratioP2;P2;SDS_P1;SDS_P2;PMS_P1;PMS_P2;Temp;Humidity;BMP_temperature;BMP_pressure;BME280_temperature;BME280_humidity;BME280_pressure;Samples;Min_cycle;Max_cycle;Signal;HPM_P1;HPM_P2
2023/04/28 00:01:14;;;;;;;;;;;7.60;99.90;;;;;;5175258;27;20009;-38
2023/04/28 00:03:40;;;;;;;;;;;7.60;99.90;;;;;;5177180;27;20371;-37
2023/04/28 00:06:05;;;;;;;;;;;7.60;99.90;;;;;;5177122;27;19942;-38
2023/04/28 00:08:31;;;;;;;;;;;7.60;99.90;;;;;;5176321;27;19965;-37
2023/04/28 00:10:56;;;;;;;;;;;7.60;99.90;;;;;;5177140;27;19914;-37
2023/04/28 00:13:22;;;;;;;;;;;7.60;99.90;;;;;;5176918;27;19922;-38
2023/04/28 00:15:48;;;;;;;;;;;7.60;99.90;;;;;;5175185;27;19918;-38
2023/04/28 00:18:14;;;;;;;;;;;7.50;99.90;;;;;;5176956;27;19907;-37
2023/04/28 00:20:39;;;;;;;;;;;7.50;99.90;;;;;;5176875;27;19907;-38
2023/04/28 00:23:05;;;;;;;;;;;7.50;99.90;;;;;;5172028;27;19907;-37
2023/04/28 00:25:30;;;;;;;;;;;7.50;99.90;;;;;;5156009;27;19919;-38
2023/04/28 00:27:56;;;;;;;;;;;7.50;99.90;;;;;;5155874;27;20352;-37
2023/04/28 00:30:21;;;;;;;;;;;7.50;99.90;;;;;;5154731;27;20042;-38
2023/04/28 00:32:47;;;;;;;;;;;7.50;99.90;;;;;;5155791;27;20380;-37
2023/04/28 00:35:12;;;;;;;;;;;7.50;99.90;;;;;;5155670;27;19907;-37
2023/04/28 00:37:38;;;;;;;;;;;7.50;99.90;;;;;;5154953;27;19914;-37
2023/04/28 00:40:03;;;;;;;;;;;7.50;99.90;;;;;;5155625;27;19907;-39
2023/04/28 00:42:29;;;;;;;;;;;7.50;99.90;;;;;;5155559;27;19990;-37
2023/04/28 00:44:54;;;;;;;;;;;7.50;99.90;;;;;;5164596;27;20337;-38
2023/04/28 00:47:21;;;;;;;;;;;7.50;99.90;;;;;;5176294;27;20324;-38
2023/04/28 00:49:48;;;;;;;;;;;7.50;99.90;;;;;;5176356;27;19906;-38
2023/04/28 00:52:14;;;;;;;;;;;7.50;99.90;;;;;;5174952;27;20014;-38
2023/04/28 00:54:39;;;;;;;;;;;7.50;99.90;;;;;;5176270;27;19998;-38
2023/04/28 00:57:05;;;;;;;;;;;7.40;99.90;;;;;;5176103;27;19907;-37
2023/04/28 00:59:31;;;;;;;;;;;7.40;99.90;;;;;;5175256;27;19913;-37
2023/04/28 01:01:58;;;;;;;;;;;7.40;99.90;;;;;;5176087;27;19906;-39
2023/04/28 01:04:24;;;;;;;;;;;7.40;99.90;;;;;;5176045;27;19917;-37
2023/04/28 01:06:51;;;;;;;;;;;7.40;99.90;;;;;;5175591;27;19907;-37
2023/04/28 01:09:16;;;;;;;;;;;7.40;99.90;;;;;;5175463;27;19915;-38
2023/04/28 01:11:42;;;;;;;;;;;7.40;99.90;;;;;;5174499;27;20392;-38
2023/04/28 01:14:07;;;;;;;;;;;7.40;99.90;;;;;;5175450;27;19910;-37
2023/04/28 01:16:34;;;;;;;;;;;7.40;99.90;;;;;;5175716;27;19907;-38
2023/04/28 01:18:59;;;;;;;;;;;7.40;99.90;;;;;;5174941;27;19914;-38
2023/04/28 01:21:27;;;;;;;;;;;7.40;99.90;;;;;;5175663;27;19910;-37
2023/04/28 01:23:53;;;;;;;;;;;7.40;99.90;;;;;;5175688;27;19973;-37
2023/04/28 01:26:19;;;;;;;;;;;7.40;99.90;;;;;;5174832;27;20350;-38
2023/04/28 01:28:44;;;;;;;;;;;7.40;99.90;;;;;;5175499;27;19913;-37
2023/04/28 01:31:10;;;;;;;;;;;7.40;99.90;;;;;;5175189;27;19923;-37
2023/04/28 01:33:35;;;;;;;;;;;7.40;99.90;;;;;;5174605;27;19965;-37
2023/04/28 01:36:01;;;;;;;;;;;7.30;99.90;;;;;;5175568;27;19918;-36
2023/04/28 01:38:26;;;;;;;;;;;7.30;99.90;;;;;;5175406;27;19946;-38
2023/04/28 01:40:53;;;;;;;;;;;7.30;99.90;;;;;;5174230;27;19911;-37
2023/04/28 01:43:18;;;;;;;;;;;7.30;99.90;;;;;;5175142;27;19911;-38
2023/04/28 01:45:44;;;;;;;;;;;7.30;99.90;;;;;;5175288;27;19907;-37
2023/04/28 01:48:10;;;;;;;;;;;7.30;99.90;;;;;;5174816;27;19907;-38
2023/04/28 01:50:35;;;;;;;;;;;7.30;99.90;;;;;;5175060;27;20375;-38
2023/04/28 01:53:00;;;;;;;;;;;7.30;99.90;;;;;;5174358;27;20361;-38
2023/04/28 01:55:26;;;;;;;;;;;7.30;99.90;;;;;;5173851;27;19915;-37
2023/04/28 01:57:51;;;;;;;;;;;7.30;99.90;;;;;;5175137;27;19911;-38
2023/04/28 02:00:17;;;;;;;;;;;7.30;99.90;;;;;;5175160;27;19913;-37
2023/04/28 02:02:42;;;;;;;;;;;7.30;99.90;;;;;;5174662;27;19906;-38
2023/04/28 02:05:08;;;;;;;;;;;7.30;99.90;;;;;;5177482;27;20353;-37
2023/04/28 02:07:33;;;;;;;;;;;7.20;99.90;;;;;;5179564;27;19907;-38
2023/04/28 02:09:59;;;;;;;;;;;7.20;99.90;;;;;;5178827;27;19915;-38
2023/04/28 02:12:24;;;;;;;;;;;7.20;99.90;;;;;;5178954;27;19972;-37
2023/04/28 02:14:50;;;;;;;;;;;7.20;99.90;;;;;;5178622;27;19910;-38
2023/04/28 02:17:15;;;;;;;;;;;7.20;99.90;;;;;;5179466;27;19907;-38
2023/04/28 02:19:41;;;;;;;;;;;7.20;99.90;;;;;;5179290;27;20277;-37
2023/04/28 02:22:06;;;;;;;;;;;7.20;99.90;;;;;;5178405;27;19911;-38
2023/04/28 02:24:36;;;;;;;;;;;7.20;99.90;;;;;;5179240;27;20372;-38
2023/04/28 02:27:02;;;;;;;;;;;7.20;99.90;;;;;;5179118;27;19907;-38
2023/04/28 02:29:29;;;;;;;;;;;7.20;99.90;;;;;;5178287;27;19907;-38
2023/04/28 02:31:54;;;;;;;;;;;7.10;99.90;;;;;;5178712;27;19919;-38
2023/04/28 02:34:20;;;;;;;;;;;7.10;99.90;;;;;;5178874;27;19910;-38
2023/04/28 02:36:47;;;;;;;;;;;7.10;99.90;;;;;;5178210;27;20005;-37
2023/04/28 02:39:12;;;;;;;;;;;7.10;99.90;;;;;;5178785;27;19997;-37
2023/04/28 02:41:38;;;;;;;;;;;7.10;99.90;;;;;;5178511;27;20071;-38
2023/04/28 02:44:03;;;;;;;;;;;7.10;99.90;;;;;;5178056;27;19914;-37
2023/04/28 02:46:29;;;;;;;;;;;7.10;99.90;;;;;;5178750;27;20325;-38
2023/04/28 02:48:55;;;;;;;;;;;7.10;99.90;;;;;;5178485;27;20249;-38
2023/04/28 02:51:20;;;;;;;;;;;7.10;99.90;;;;;;5177655;27;19911;-38
2023/04/28 02:53:46;;;;;;;;;;;7.10;99.90;;;;;;5178521;27;19915;-38
2023/04/28 02:56:11;;;;;;;;;;;7.10;99.90;;;;;;5178567;27;19910;-37
2023/04/28 02:58:37;;;;;;;;;;;7.10;99.90;;;;;;5177883;27;19906;-38
2023/04/28 03:01:02;;;;;;;;;;;7.10;99.90;;;;;;5177874;27;19910;-37
2023/04/28 03:03:28;;;;;;;;;;;7.00;99.90;;;;;;5178384;27;19929;-38
2023/04/28 03:05:55;;;;;;;;;;;7.00;99.90;;;;;;5177688;27;19911;-37
2023/04/28 03:08:21;;;;;;;;;;;7.00;99.90;;;;;;5178306;27;20014;-38
2023/04/28 03:10:46;;;;;;;;;;;6.90;99.90;;;;;;5178472;27;20376;-37
2023/04/28 03:13:12;;;;;;;;;;;6.90;99.90;;;;;;5177388;27;20013;-38
2023/04/28 03:15:37;;;;;;;;;;;6.90;99.90;;;;;;5178108;27;20284;-37
2023/04/28 03:18:03;;;;;;;;;;;6.80;99.90;;;;;;5178226;27;19907;-38
2023/04/28 03:20:28;;;;;;;;;;;6.80;99.90;;;;;;5177569;27;19995;-37
2023/04/28 03:22:54;;;;;;;;;;;6.80;99.90;;;;;;5178340;27;19914;-37
2023/04/28 03:25:19;;;;;;;;;;;6.80;99.90;;;;;;5177230;27;20050;-37
2023/04/28 03:27:45;;;;;;;;;;;6.80;99.90;;;;;;5178065;27;19914;-38
2023/04/28 03:30:10;;;;;;;;;;;6.80;99.90;;;;;;5177111;27;19914;-37
2023/04/28 03:32:36;;;;;;;;;;;6.80;99.90;;;;;;5176594;27;19925;-38
2023/04/28 03:35:03;;;;;;;;;;;6.90;99.90;;;;;;5177107;27;20294;-37
2023/04/28 03:37:28;;;;;;;;;;;6.90;99.90;;;;;;5177799;27;19946;-38
2023/04/28 03:39:54;;;;;;;;;;;6.90;99.90;;;;;;5176941;27;19914;-38
2023/04/28 03:42:20;;;;;;;;;;;6.90;99.90;;;;;;5177616;27;20257;-38
2023/04/28 03:44:45;;;;;;;;;;;6.90;99.90;;;;;;5175777;27;20005;-38
2023/04/28 03:47:10;;;;;;;;;;;6.90;99.90;;;;;;5175733;27;19915;-38
2023/04/28 03:49:36;;;;;;;;;;;6.90;99.90;;;;;;5164277;27;19914;-38
2023/04/28 03:52:03;;;;;;;;;;;6.90;99.90;;;;;;5156495;27;19918;-37
2023/04/28 03:54:28;;;;;;;;;;;6.90;99.90;;;;;;5155761;27;20369;-38
2023/04/28 03:56:54;;;;;;;;;;;6.90;99.90;;;;;;5156569;27;19961;-37
2023/04/28 03:59:19;;;;;;;;;;;7.00;99.90;;;;;;5163817;27;20379;-38
2023/04/28 04:01:45;;;;;;;;;;;6.90;99.90;;;;;;5176254;27;19911;-37
2023/04/28 04:04:10;;;;;;;;;;;6.90;99.90;;;;;;5177217;27;20015;-38
2023/04/28 04:06:36;;;;;;;;;;;7.00;99.90;;;;;;5176931;27;19911;-38
2023/04/28 04:09:01;;;;;;;;;;;6.90;99.90;;;;;;5176451;27;19911;-37
2023/04/28 04:11:27;;;;;;;;;;;6.90;99.90;;;;;;5177056;27;19911;-37
2023/04/28 04:13:52;;;;;;;;;;;6.90;99.90;;;;;;5171517;27;20326;-37
2023/04/28 04:16:18;;;;;;;;;;;6.90;99.90;;;;;;5155287;27;19914;-37
2023/04/28 04:18:43;;;;;;;;;;;6.90;99.90;;;;;;5156159;27;19913;-38
2023/04/28 04:21:09;;;;;;;;;;;7.00;99.90;;;;;;5155887;27;19914;-38
2023/04/28 04:23:34;;;;;;;;;;;7.00;99.90;;;;;;5155214;27;19907;-37
2023/04/28 04:26:00;;;;;;;;;;;7.00;99.90;;;;;;5156057;27;20307;-38
2023/04/28 04:28:25;;;;;;;;;;;7.00;99.90;;;;;;5154616;27;20357;-38
2023/04/28 04:30:51;;;;;;;;;;;7.00;99.90;;;;;;5165137;27;19918;-38
2023/04/28 04:33:17;;;;;;;;;;;7.00;99.90;;;;;;5176532;27;19919;-38
2023/04/28 04:35:42;;;;;;;;;;;7.00;99.90;;;;;;5175935;27;19906;-38
2023/04/28 04:38:08;;;;;;;;;;;7.00;99.90;;;;;;5176524;27;19914;-38
2023/04/28 04:40:33;;;;;;;;;;;7.00;99.90;;;;;;5176571;27;19914;-38
2023/04/28 04:42:59;;;;;;;;;;;7.00;99.90;;;;;;5175760;27;20406;-38
2023/04/28 04:45:25;;;;;;;;;;;7.00;99.90;;;;;;5176201;27;19907;-38
2023/04/28 04:47:51;;;;;;;;;;;7.10;99.90;;;;;;5175911;27;19907;-38
2023/04/28 04:50:16;;;;;;;;;;;7.10;99.90;;;;;;5175508;27;19907;-38
2023/04/28 04:52:42;;;;;;;;;;;7.10;99.90;;;;;;5176153;27;19919;-38
2023/04/28 04:55:09;;;;;;;;;;;7.10;99.90;;;;;;5176162;27;19961;-38
2023/04/28 04:57:35;;;;;;;;;;;7.10;99.90;;;;;;5175508;27;19982;-37
2023/04/28 05:00:01;;;;;;;;;;;7.20;99.90;;;;;;5175539;27;20356;-38
2023/04/28 05:02:26;;;;;;;;;;;7.20;99.90;;;;;;5175943;27;20009;-38
2023/04/28 05:04:51;;;;;;;;;;;7.20;99.90;;;;;;5175280;27;19958;-38
2023/04/28 05:07:17;;;;;;;;;;;7.30;99.90;;;;;;5175893;27;19907;-38
2023/04/28 05:09:42;;;;;;;;;;;7.20;99.90;;;;;;5175355;27;20335;-38
2023/04/28 05:12:08;;;;;;;;;;;7.20;99.90;;;;;;5174934;27;19911;-38
2023/04/28 05:14:33;;;;;;;;;;;7.30;99.90;;;;;;5175673;27;19929;-38
2023/04/28 05:16:59;;;;;;;;;;;7.30;99.90;;;;;;5175874;27;19907;-38
2023/04/28 05:19:24;;;;;;;;;;;7.30;99.90;;;;;;5174947;27;19911;-38
2023/04/28 05:21:53;;;;;;;;;;;7.40;99.90;;;;;;5175720;27;20280;-38
2023/04/28 05:24:22;;;;;;;;;;;7.40;99.90;;;;;;5175407;27;19914;-37
2023/04/28 05:26:48;;;;;;;;;;;7.40;99.90;;;;;;5174925;27;20048;-37
2023/04/28 05:29:13;;;;;;;;;;;7.50;99.90;;;;;;5174420;27;20061;-38
2023/04/28 05:31:39;;;;;;;;;;;7.50;99.90;;;;;;5174202;27;19923;-38
2023/04/28 05:34:05;;;;;;;;;;;7.60;99.90;;;;;;5173147;27;19918;-37
2023/04/28 05:36:30;;;;;;;;;;;7.60;99.90;;;;;;5174895;27;19966;-38
2023/04/28 05:38:56;;;;;;;;;;;7.70;99.90;;;;;;5173223;27;19907;-38
2023/04/28 05:41:21;;;;;;;;;;;7.70;99.90;;;;;;5174840;27;19917;-38
2023/04/28 05:43:49;;;;;;;;;;;7.70;99.90;;;;;;5174651;27;19907;-38
2023/04/28 05:46:15;;;;;;;;;;;7.80;99.90;;;;;;5173773;27;19911;-38
2023/04/28 05:48:41;;;;;;;;;;;7.90;99.90;;;;;;5174828;27;19918;-38
2023/04/28 05:51:06;;;;;;;;;;;7.90;99.90;;;;;;5173595;27;19913;-38
2023/04/28 05:53:32;;;;;;;;;;;7.90;99.90;;;;;;5168391;27;19930;-38
2023/04/28 05:55:57;;;;;;;;;;;7.90;99.90;;;;;;5169412;27;19914;-38
2023/04/28 05:58:23;;;;;;;;;;;8.00;99.90;;;;;;5171373;27;19962;-38
2023/04/28 06:00:48;;;;;;;;;;;8.00;99.90;;;;;;5173923;27;19907;-37
2023/04/28 06:03:17;;;;;;;;;;;8.00;99.90;;;;;;5174275;27;20364;-38
2023/04/28 06:05:43;;;;;;;;;;;8.10;99.90;;;;;;5174615;27;19921;-38
2023/04/28 06:08:08;;;;;;;;;;;8.10;99.90;;;;;;5174311;27;19907;-37
2023/04/28 06:10:34;;;;;;;;;;;8.10;99.90;;;;;;5171410;27;20284;-38
2023/04/28 06:13:00;;;;;;;;;;;8.10;99.90;;;;;;5170050;27;19918;-38
2023/04/28 06:15:25;;;;;;;;;;;8.20;99.90;;;;;;5173191;27;20101;-38
2023/04/28 06:17:51;;;;;;;;;;;8.20;99.90;;;;;;5174102;27;19910;-38
2023/04/28 06:20:17;;;;;;;;;;;8.20;99.90;;;;;;5173768;27;19906;-37
2023/04/28 06:22:42;;;;;;;;;;;8.30;99.90;;;;;;5172474;27;20011;-38
2023/04/28 06:25:08;;;;;;;;;;;8.30;99.90;;;;;;5173187;27;19978;-39
2023/04/28 06:27:33;;;;;;;;;;;8.30;99.90;;;;;;5173235;27;20274;-38
2023/04/28 06:29:59;;;;;;;;;;;8.30;99.90;;;;;;5172276;27;19950;-38
2023/04/28 06:32:24;;;;;;;;;;;8.30;99.90;;;;;;5173198;27;20356;-38
2023/04/28 06:34:50;;;;;;;;;;;8.20;99.90;;;;;;5173339;27;19907;-37
2023/04/28 06:37:15;;;;;;;;;;;8.20;99.90;;;;;;5172443;27;20349;-38
2023/04/28 06:39:41;;;;;;;;;;;8.20;99.90;;;;;;5173262;27;19907;-38
2023/04/28 06:42:06;;;;;;;;;;;8.20;99.90;;;;;;5172389;27;19937;-38
2023/04/28 06:44:32;;;;;;;;;;;8.20;99.90;;;;;;5173314;27;19914;-38
2023/04/28 06:46:58;;;;;;;;;;;8.20;99.90;;;;;;5173389;27;19962;-38
2023/04/28 06:49:23;;;;;;;;;;;8.20;99.90;;;;;;5172352;27;20617;-38
2023/04/28 06:51:49;;;;;;;;;;;8.30;99.90;;;;;;5176434;27;19911;-38
2023/04/28 06:54:15;;;;;;;;;;;8.30;99.90;;;;;;5177217;27;20055;-38
2023/04/28 06:56:41;;;;;;;;;;;8.30;99.90;;;;;;5176138;27;19918;-38
2023/04/28 06:59:07;;;;;;;;;;;8.30;99.90;;;;;;5176957;27;19907;-38
2023/04/28 07:01:32;;;;;;;;;;;8.30;99.90;;;;;;5175870;27;19990;-38
2023/04/28 07:03:58;;;;;;;;;;;8.40;99.90;;;;;;5176097;27;19944;-38
2023/04/28 07:06:23;;;;;;;;;;;8.40;99.90;;;;;;5176786;27;19910;-38
2023/04/28 07:08:49;;;;;;;;;;;8.40;99.90;;;;;;5176871;27;19907;-37
2023/04/28 07:11:15;;;;;;;;;;;8.40;99.90;;;;;;5175851;27;19906;-38
2023/04/28 07:13:40;;;;;;;;;;;8.50;99.90;;;;;;5176488;27;19997;-38
2023/04/28 07:16:06;;;;;;;;;;;8.60;99.90;;;;;;5176693;27;20368;-38
2023/04/28 07:18:32;;;;;;;;;;;8.60;99.90;;;;;;5175584;27;19917;-38
2023/04/28 07:20:57;;;;;;;;;;;8.70;99.90;;;;;;5176595;27;19907;-38
2023/04/28 07:23:23;;;;;;;;;;;8.80;99.90;;;;;;5176432;27;20237;-38
2023/04/28 07:25:48;;;;;;;;;;;8.80;99.90;;;;;;5172112;27;20560;-38
2023/04/28 07:28:14;;;;;;;;;;;8.90;99.90;;;;;;5176181;27;19950;-38
2023/04/28 07:30:39;;;;;;;;;;;9.00;99.90;;;;;;5174932;27;19971;-38
2023/04/28 07:33:05;;;;;;;;;;;9.10;99.90;;;;;;5168550;27;19933;-38
2023/04/28 07:35:30;;;;;;;;;;;9.10;99.90;;;;;;5176226;27;19911;-38
2023/04/28 07:37:56;;;;;;;;;;;9.10;99.90;;;;;;5176317;27;19907;-38
2023/04/28 07:40:22;;;;;;;;;;;9.20;99.90;;;;;;5175071;27;19953;-38
2023/04/28 07:42:48;;;;;;;;;;;9.20;99.90;;;;;;5175903;27;19954;-38
2023/04/28 07:45:14;;;;;;;;;;;9.30;99.90;;;;;;5165968;27;19943;-38
2023/04/28 07:47:40;;;;;;;;;;;9.30;99.90;;;;;;5172528;27;19970;-37
2023/04/28 07:50:06;;;;;;;;;;;9.30;99.90;;;;;;5167523;27;19911;-38
2023/04/28 07:52:32;;;;;;;;;;;9.40;99.90;;;;;;5169328;27;19918;-38
2023/04/28 07:54:58;;;;;;;;;;;9.40;99.90;;;;;;5172628;27;19968;-38
2023/04/28 07:57:23;;;;;;;;;;;9.50;99.90;;;;;;5162667;27;19922;-38
2023/04/28 07:59:49;;;;;;;;;;;9.50;99.90;;;;;;5155907;27;19990;-38
2023/04/28 08:02:15;;;;;;;;;;;9.60;99.90;;;;;;5169111;27;19957;-38
2023/04/28 08:04:40;;;;;;;;;;;9.70;99.90;;;;;;5176715;27;20405;-38
2023/04/28 08:07:07;;;;;;;;;;;9.80;99.90;;;;;;5173974;27;20009;-37
2023/04/28 08:09:33;;;;;;;;;;;9.90;99.90;;;;;;5175309;27;19962;-38
2023/04/28 08:11:59;;;;;;;;;;;10.00;99.90;;;;;;5173381;27;19911;-38
2023/04/28 08:14:25;;;;;;;;;;;10.10;99.90;;;;;;5174804;27;20481;-38
2023/04/28 08:16:50;;;;;;;;;;;10.20;99.90;;;;;;5174097;27;19922;-38
2023/04/28 08:19:16;;;;;;;;;;;10.30;99.90;;;;;;5173781;27;19918;-37
2023/04/28 08:21:41;;;;;;;;;;;10.40;99.90;;;;;;5176196;27;19929;-38
2023/04/28 08:24:09;;;;;;;;;;;10.40;99.90;;;;;;5169257;27;19907;-38
2023/04/28 08:26:35;;;;;;;;;;;10.50;99.90;;;;;;5171578;27;19972;-38
2023/04/28 08:29:01;;;;;;;;;;;10.60;99.90;;;;;;5175747;27;19933;-38
2023/04/28 08:31:26;;;;;;;;;;;10.60;99.90;;;;;;5175959;27;20392;-38
2023/04/28 08:33:52;;;;;;;;;;;10.70;99.90;;;;;;5176745;27;20013;-38
2023/04/28 08:36:17;;;;;;;;;;;10.80;99.90;;;;;;5155414;27;20277;-38
2023/04/28 08:38:43;;;;;;;;;;;10.90;99.90;;;;;;5155782;27;19907;-38
2023/04/28 08:41:09;;;;;;;;;;;11.00;99.90;;;;;;5156141;27;19965;-38
2023/04/28 08:43:35;;;;;;;;;;;11.10;99.90;;;;;;5155604;27;20301;-38
2023/04/28 08:46:05;;;;;;;;;;;11.10;99.90;;;;;;5156227;27;19911;-39
2023/04/28 08:48:32;;;;;;;;;;;11.20;99.90;;;;;;5156155;27;19907;-38
2023/04/28 08:50:58;;;;;;;;;;;11.20;99.90;;;;;;5155653;27;20273;-38
2023/04/28 08:53:24;;;;;;;;;;;11.20;99.90;;;;;;5156048;27;20495;-38
2023/04/28 08:55:56;;;;;;;;;;;11.20;99.90;;;;;;5155776;27;19942;-39
2023/04/28 08:58:26;;;;;;;;;;;11.20;99.90;;;;;;5176945;27;19914;-38
2023/04/28 09:00:52;;;;;;;;;;;11.10;99.90;;;;;;5176779;27;19907;-38
2023/04/28 09:03:18;;;;;;;;;;;11.10;99.90;;;;;;5176300;27;19907;-39
2023/04/28 09:05:43;;;;;;;;;;;11.10;99.90;;;;;;5176827;27;19951;-38
2023/04/28 09:08:11;;;;;;;;;;;11.10;99.90;;;;;;5175736;27;19914;-38
2023/04/28 09:10:37;;;;;;;;;;;11.20;99.90;;;;;;5174133;27;19907;-38
2023/04/28 09:13:03;;;;;;;;;;;11.30;99.90;;;;;;5175511;27;19922;-38
2023/04/28 09:15:28;;;;;;;;;;;11.40;99.90;;;;;;5175774;27;19911;-38
2023/04/28 09:17:54;;;;;;;;;;;11.50;99.90;;;;;;5175130;27;20043;-38
2023/04/28 09:20:23;;;;;;;;;;;11.70;99.90;;;;;;5175913;27;19910;-38
2023/04/28 09:22:49;;;;;;;;;;;11.90;99.90;;;;;;5174838;27;20288;-38
2023/04/28 09:25:16;;;;;;;;;;;12.00;99.90;;;;;;5173925;27;20316;-38
2023/04/28 09:27:41;;;;;;;;;;;12.10;99.90;;;;;;5175260;27;19906;-38
2023/04/28 09:30:08;;;;;;;;;;;12.10;99.90;;;;;;5175366;27;20352;-38
2023/04/28 09:32:35;;;;;;;;;;;12.10;99.90;;;;;;5174493;27;20053;-39
2023/04/28 09:35:01;;;;;;;;;;;12.00;99.90;;;;;;5174411;27;20262;-38
2023/04/28 09:37:30;;;;;;;;;;;12.00;99.90;;;;;;5175495;27;19914;-38
2023/04/28 09:39:56;;;;;;;;;;;12.00;99.90;;;;;;5174774;27;19938;-39
2023/04/28 09:42:32;;;;;;;;;;;12.00;99.90;;;;;;5175128;27;19914;-38
2023/04/28 09:44:58;;;;;;;;;;;12.10;99.90;;;;;;5174600;27;19907;-38
2023/04/28 09:47:24;;;;;;;;;;;12.20;99.90;;;;;;5175164;27;19914;-38
2023/04/28 09:49:53;;;;;;;;;;;12.30;99.90;;;;;;5175175;27;19911;-38
2023/04/28 09:52:19;;;;;;;;;;;12.30;99.90;;;;;;5174378;27;19959;-38
2023/04/28 09:54:45;;;;;;;;;;;12.40;99.90;;;;;;5175399;27;19907;-39
2023/04/28 09:57:11;;;;;;;;;;;12.50;99.90;;;;;;5170246;27;19918;-38
2023/04/28 09:59:37;;;;;;;;;;;12.60;99.90;;;;;;5157169;27;19911;-37
2023/04/28 10:02:04;;;;;;;;;;;12.70;99.90;;;;;;5150620;27;19911;-38
2023/04/28 10:04:32;;;;;;;;;;;12.80;99.90;;;;;;5155533;27;19914;-38
2023/04/28 10:06:58;;;;;;;;;;;13.00;99.90;;;;;;5172803;27;19910;-38
2023/04/28 10:09:25;;;;;;;;;;;13.10;99.90;;;;;;5173599;27;19911;-38
2023/04/28 10:11:51;;;;;;;;;;;13.30;99.90;;;;;;5173937;27;19945;-38
2023/04/28 10:14:17;;;;;;;;;;;13.50;99.90;;;;;;5173003;27;19984;-38
2023/04/28 10:16:43;;;;;;;;;;;14.00;99.90;;;;;;5173921;27;19927;-38
2023/04/28 10:19:09;;;;;;;;;;;14.20;99.90;;;;;;5174233;27;20331;-38
2023/04/28 10:21:37;;;;;;;;;;;14.50;99.90;;;;;;5173362;27;19928;-38
2023/04/28 10:24:06;;;;;;;;;;;14.70;99.90;;;;;;5170002;27;20318;-38
2023/04/28 10:26:51;;;;;;;;;;;14.70;99.90;;;;;;5156067;27;19907;-38
2023/04/28 10:29:21;;;;;;;;;;;14.90;99.90;;;;;;5157341;27;19911;-38
2023/04/28 10:32:05;;;;;;;;;;;14.90;99.90;;;;;;5156989;27;20370;-38
2023/04/28 10:34:31;;;;;;;;;;;14.80;99.90;;;;;;5157022;27;20002;-38
2023/04/28 10:36:58;;;;;;;;;;;14.80;99.90;;;;;;5157775;27;19979;-37
2023/04/28 10:39:24;;;;;;;;;;;14.80;99.90;;;;;;5158231;27;19955;-38
2023/04/28 10:41:49;;;;;;;;;;;14.90;99.90;;;;;;5157545;27;19907;-38
2023/04/28 10:44:27;;;;;;;;;;;15.00;99.90;;;;;;5157767;27;19975;-38
2023/04/28 10:47:06;;;;;;;;;;;15.10;99.90;;;;;;5157408;27;20444;-38
2023/04/28 10:49:50;;;;;;;;;;;15.10;99.90;;;;;;5154623;27;20038;-38
2023/04/28 10:52:35;;;;;;;;;;;15.10;99.90;;;;;;5175547;27;19910;-38
2023/04/28 10:55:20;;;;;;;;;;;15.10;99.90;;;;;;5173557;27;20325;-40
2023/04/28 10:57:46;;;;;;;;;;;15.10;99.90;;;;;;5174548;27;19910;-38
2023/04/28 11:00:25;;;;;;;;;;;15.00;99.90;;;;;;5174271;27;19918;-38
2023/04/28 11:02:51;;;;;;;;;;;14.90;99.90;;;;;;5173868;27;19915;-38
2023/04/28 11:05:17;;;;;;;;;;;14.80;99.90;;;;;;5171125;27;20015;-38
2023/04/28 11:08:03;;;;;;;;;;;14.70;99.90;;;;;;5171461;27;19971;-38
2023/04/28 11:10:48;;;;;;;;;;;14.80;99.90;;;;;;5159768;27;19911;-38
2023/04/28 11:13:26;;;;;;;;;;;15.00;99.90;;;;;;5161896;27;19983;-38
2023/04/28 11:16:05;;;;;;;;;;;15.10;99.90;;;;;;5176103;27;20368;-38
2023/04/28 11:18:49;;;;;;;;;;;15.30;99.90;;;;;;5175545;27;19917;-38
2023/04/28 11:21:15;;;;;;;;;;;15.40;99.90;;;;;;5173992;27;19956;-38
2023/04/28 11:23:41;;;;;;;;;;;15.40;99.90;;;;;;5177047;27;19914;-38
2023/04/28 11:26:07;;;;;;;;;;;15.30;99.90;;;;;;5177029;27;20433;-38
2023/04/28 11:28:33;;;;;;;;;;;15.40;99.90;;;;;;5177734;27;19914;-38
2023/04/28 11:31:12;;;;;;;;;;;15.40;99.90;;;;;;5175498;27;20017;-38
2023/04/28 11:33:37;;;;;;;;;;;15.20;99.90;;;;;;5165231;27;19918;-38
2023/04/28 11:36:03;;;;;;;;;;;15.10;99.90;;;;;;5168052;27;20380;-38
2023/04/28 11:38:29;;;;;;;;;;;15.00;99.90;;;;;;5172608;27;19914;-38
2023/04/28 11:40:55;;;;;;;;;;;15.00;99.90;;;;;;5176038;27;20055;-38
2023/04/28 11:43:27;;;;;;;;;;;14.90;99.90;;;;;;5176262;27;19907;-39
2023/04/28 11:45:53;;;;;;;;;;;14.80;99.90;;;;;;5177904;27;19914;-38
2023/04/28 11:48:22;;;;;;;;;;;14.80;99.90;;;;;;5176665;27;19914;-38
2023/04/28 11:50:47;;;;;;;;;;;14.60;99.90;;;;;;5164613;27;19947;-38
2023/04/28 11:53:13;;;;;;;;;;;14.50;99.90;;;;;;5169172;27;20018;-38
2023/04/28 11:55:38;;;;;;;;;;;14.50;99.90;;;;;;5176202;27;19906;-39
2023/04/28 11:58:17;;;;;;;;;;;14.50;99.90;;;;;;5171285;27;19918;-38
2023/04/28 12:00:42;;;;;;;;;;;14.40;99.90;;;;;;5174285;27;19922;-38
2023/04/28 12:03:08;;;;;;;;;;;14.40;99.90;;;;;;5176456;27;19910;-39
2023/04/28 12:05:36;;;;;;;;;;;14.40;99.90;;;;;;5175188;27;19911;-38
2023/04/28 12:08:01;;;;;;;;;;;14.40;99.90;;;;;;5173509;27;20033;-40
2023/04/28 12:10:27;;;;;;;;;;;14.40;99.90;;;;;;5176771;27;20401;-38
2023/04/28 12:12:52;;;;;;;;;;;14.30;99.90;;;;;;5176552;27;19978;-37
2023/04/28 12:15:19;;;;;;;;;;;14.30;99.90;;;;;;5177726;27;19906;-38
2023/04/28 12:17:45;;;;;;;;;;;14.30;99.90;;;;;;5177685;27;20269;-38
2023/04/28 12:20:11;;;;;;;;;;;14.30;99.90;;;;;;5170266;27;19932;-38
2023/04/28 12:22:45;;;;;;;;;;;14.20;99.90;;;;;;5177874;27;19915;-38
2023/04/28 12:25:11;;;;;;;;;;;14.10;99.90;;;;;;5175108;27;19913;-37
2023/04/28 12:27:39;;;;;;;;;;;14.10;99.90;;;;;;5156859;27;19907;-38
2023/04/28 12:30:19;;;;;;;;;;;14.10;99.90;;;;;;5162211;27;19918;-38
2023/04/28 12:32:45;;;;;;;;;;;14.00;99.90;;;;;;5170428;27;19919;-38
2023/04/28 12:35:11;;;;;;;;;;;14.10;99.90;;;;;;5155876;27;19908;-38
2023/04/28 12:37:40;;;;;;;;;;;14.10;99.90;;;;;;5156443;27;19907;-38
2023/04/28 12:40:06;;;;;;;;;;;14.10;99.90;;;;;;5160646;27;19918;-38
2023/04/28 12:42:31;;;;;;;;;;;14.20;99.90;;;;;;5155645;27;19907;-37
2023/04/28 12:44:57;;;;;;;;;;;14.20;99.90;;;;;;5156892;27;19911;-38
2023/04/28 12:47:23;;;;;;;;;;;14.30;99.90;;;;;;5173210;27;20001;-38
2023/04/28 12:49:51;;;;;;;;;;;14.20;99.90;;;;;;5168281;27;20009;-38
2023/04/28 12:52:18;;;;;;;;;;;14.20;99.90;;;;;;5167986;27;20377;-38
2023/04/28 12:54:46;;;;;;;;;;;14.20;99.90;;;;;;5155993;27;20369;-38
2023/04/28 12:57:12;;;;;;;;;;;14.10;99.90;;;;;;5155491;27;20373;-38
2023/04/28 12:59:38;;;;;;;;;;;14.10;99.90;;;;;;5156809;27;20253;-37
2023/04/28 13:02:03;;;;;;;;;;;14.00;99.90;;;;;;5162052;27;19915;-37
2023/04/28 13:04:29;;;;;;;;;;;14.00;99.90;;;;;;5176674;27;20369;-37
2023/04/28 13:06:57;;;;;;;;;;;14.00;99.90;;;;;;5163007;27;19911;-38
2023/04/28 13:09:23;;;;;;;;;;;14.10;99.90;;;;;;5171911;27;20302;-38
2023/04/28 13:11:49;;;;;;;;;;;14.10;99.90;;;;;;5176811;27;19907;-38
2023/04/28 13:14:14;;;;;;;;;;;14.20;99.90;;;;;;5166389;27;20367;-39
2023/04/28 13:16:40;;;;;;;;;;;14.10;99.90;;;;;;5160690;27;19910;-38
2023/04/28 13:19:12;;;;;;;;;;;14.00;99.90;;;;;;5161809;27;19918;-38
2023/04/28 13:21:38;;;;;;;;;;;14.00;99.90;;;;;;5165327;27;20273;-38
2023/04/28 13:24:04;;;;;;;;;;;14.00;99.90;;;;;;5173281;27;19949;-37
2023/04/28 13:26:30;;;;;;;;;;;13.90;99.90;;;;;;5174937;27;20369;-37
2023/04/28 13:28:55;;;;;;;;;;;14.00;99.90;;;;;;5175692;27;19907;-37
2023/04/28 13:31:21;;;;;;;;;;;14.00;99.90;;;;;;5174405;27;19919;-37
2023/04/28 13:33:46;;;;;;;;;;;13.90;99.90;;;;;;5161203;27;19919;-37
2023/04/28 13:36:12;;;;;;;;;;;13.90;99.90;;;;;;5155542;27;19942;-38
2023/04/28 13:38:37;;;;;;;;;;;13.90;99.90;;;;;;5154856;27;20341;-37
2023/04/28 13:41:03;;;;;;;;;;;13.80;99.90;;;;;;5155370;27;20336;-37
2023/04/28 13:43:30;;;;;;;;;;;13.80;99.90;;;;;;5157293;27;19908;-37
2023/04/28 13:45:55;;;;;;;;;;;13.80;99.90;;;;;;5166611;27;19910;-37
2023/04/28 13:48:21;;;;;;;;;;;13.80;99.90;;;;;;5167114;27;19914;-37
2023/04/28 13:50:46;;;;;;;;;;;13.80;99.90;;;;;;5162109;27;20389;-37
2023/04/28 13:53:12;;;;;;;;;;;13.80;99.90;;;;;;5174624;27;19915;-37
2023/04/28 13:55:37;;;;;;;;;;;13.80;99.90;;;;;;5175827;27;19929;-37
2023/04/28 13:58:06;;;;;;;;;;;13.90;99.90;;;;;;5175747;27;20374;-37
2023/04/28 14:00:32;;;;;;;;;;;13.90;99.90;;;;;;5174126;27;19949;-37
2023/04/28 14:02:58;;;;;;;;;;;13.90;99.90;;;;;;5170197;27;20336;-38
2023/04/28 14:05:24;;;;;;;;;;;13.90;99.90;;;;;;5162944;27;20360;-37
2023/04/28 14:07:49;;;;;;;;;;;13.90;99.90;;;;;;5175916;27;19910;-37
2023/04/28 14:10:15;;;;;;;;;;;13.90;99.90;;;;;;5161115;27;19918;-37
2023/04/28 14:12:41;;;;;;;;;;;13.90;99.90;;;;;;5174977;27;19936;-37
2023/04/28 14:15:06;;;;;;;;;;;13.90;99.90;;;;;;5163067;27;20401;-37
2023/04/28 14:17:33;;;;;;;;;;;13.90;99.90;;;;;;5160583;27;19911;-37
2023/04/28 14:20:02;;;;;;;;;;;13.90;99.90;;;;;;5170123;27;19914;-37